sensor_id;sensor_type;location;lat;lon;timestamp;P1;durP1;ratioP1;P2;durP2;ratioP2
13816;SDS011;6979;52.116;5.286;2022-10-31T00:00:47;12.60;;;9.77;;
13816;SDS011;6979;52.116;5.286;2022-10-31T00:03:14;8.80;;;7.90;;
13816;SDS011;6979;52.116;5.286;2022-10-31T00:05:41;8.27;;;7.47;;
13816;SDS011;6979;52.116;5.286;2022-10-31T00:08:09;8.10;;;7.40;;
13816;SDS011;6979;52.116;5.286;2022-10-31T00:10:38;7.20;;;6.57;;
13816;SDS011;6979;52.116;5.286;2022-10-31T00:13:05;6.73;;;6.23;;
13816;SDS011;6979;52.116;5.286;2022-10-31T00:15:32;7.63;;;6.83;;
13816;SDS011;6979;52.116;5.286;2022-10-31T00:17:59;7.30;;;6.47;;
13816;SDS011;6979;52.116;5.286;2022-10-31T00:20:26;7.37;;;6.67;;
13816;SDS011;6979;52.116;5.286;2022-10-31T00:22:53;7.73;;;6.87;;
13816;SDS011;6979;52.116;5.286;2022-10-31T00:25:23;6.80;;;6.10;;
13816;SDS011;6979;52.116;5.286;2022-10-31T00:27:51;7.70;;;7.00;;
13816;SDS011;6979;52.116;5.286;2022-10-31T00:30:19;6.77;;;5.73;;
13816;SDS011;6979;52.116;5.286;2022-10-31T00:32:45;8.37;;;6.50;;
13816;SDS011;6979;52.116;5.286;2022-10-31T00:35:12;7.57;;;6.77;;
13816;SDS011;6979;52.116;5.286;2022-10-31T00:37:41;6.90;;;6.30;;
13816;SDS011;6979;52.116;5.286;2022-10-31T00:40:09;7.77;;;7.07;;
13816;SDS011;6979;52.116;5.286;2022-10-31T00:42:36;7.57;;;6.97;;
13816;SDS011;6979;52.116;5.286;2022-10-31T00:45:06;8.53;;;7.10;;
13816;SDS011;6979;52.116;5.286;2022-10-31T00:47:33;8.30;;;7.50;;
13816;SDS011;6979;52.116;5.286;2022-10-31T00:50:00;6.70;;;6.10;;
13816;SDS011;6979;52.116;5.286;2022-10-31T00:52:28;7.27;;;6.67;;
13816;SDS011;6979;52.116;5.286;2022-10-31T00:54:56;6.97;;;6.47;;
13816;SDS011;6979;52.116;5.286;2022-10-31T00:57:22;11.93;;;7.23;;
13816;SDS011;6979;52.116;5.286;2022-10-31T00:59:50;6.97;;;6.47;;
13816;SDS011;6979;52.116;5.286;2022-10-31T01:02:18;7.27;;;6.67;;
13816;SDS011;6979;52.116;5.286;2022-10-31T01:04:45;7.97;;;7.17;;
13816;SDS011;6979;52.116;5.286;2022-10-31T01:07:12;7.37;;;6.67;;
13816;SDS011;6979;52.116;5.286;2022-10-31T01:09:39;9.10;;;8.20;;
13816;SDS011;6979;52.116;5.286;2022-10-31T01:12:06;7.63;;;6.87;;
13816;SDS011;6979;52.116;5.286;2022-10-31T01:14:33;7.47;;;6.20;;
13816;SDS011;6979;52.116;5.286;2022-10-31T01:17:02;7.03;;;6.30;;
13816;SDS011;6979;52.116;5.286;2022-10-31T01:19:31;7.37;;;6.63;;
13816;SDS011;6979;52.116;5.286;2022-10-31T01:21:58;7.77;;;7.07;;
13816;SDS011;6979;52.116;5.286;2022-10-31T01:24:28;8.23;;;7.50;;
13816;SDS011;6979;52.116;5.286;2022-10-31T01:26:55;7.40;;;6.83;;
13816;SDS011;6979;52.116;5.286;2022-10-31T01:29:21;9.40;;;8.37;;
13816;SDS011;6979;52.116;5.286;2022-10-31T01:31:48;9.23;;;8.43;;
13816;SDS011;6979;52.116;5.286;2022-10-31T01:34:16;9.10;;;8.17;;
13816;SDS011;6979;52.116;5.286;2022-10-31T01:36:45;7.47;;;6.73;;
13816;SDS011;6979;52.116;5.286;2022-10-31T01:39:16;9.07;;;6.67;;
13816;SDS011;6979;52.116;5.286;2022-10-31T01:41:44;7.70;;;6.90;;
13816;SDS011;6979;52.116;5.286;2022-10-31T01:47:32;6.30;;;5.80;;
13816;SDS011;6979;52.116;5.286;2022-10-31T01:50:10;7.27;;;6.67;;
13816;SDS011;6979;52.116;5.286;2022-10-31T01:52:48;6.73;;;6.13;;
13816;SDS011;6979;52.116;5.286;2022-10-31T01:55:18;6.60;;;5.67;;
13816;SDS011;6979;52.116;5.286;2022-10-31T01:57:49;6.47;;;5.97;;
13816;SDS011;6979;52.116;5.286;2022-10-31T02:00:20;6.57;;;5.97;;
13816;SDS011;6979;52.116;5.286;2022-10-31T02:02:47;7.10;;;6.40;;
13816;SDS011;6979;52.116;5.286;2022-10-31T02:05:19;7.13;;;6.53;;
13816;SDS011;6979;52.116;5.286;2022-10-31T02:07:54;7.93;;;6.20;;
13816;SDS011;6979;52.116;5.286;2022-10-31T02:10:28;7.23;;;6.57;;
13816;SDS011;6979;52.116;5.286;2022-10-31T02:12:57;6.93;;;5.97;;
13816;SDS011;6979;52.116;5.286;2022-10-31T02:15:26;6.23;;;5.83;;
13816;SDS011;6979;52.116;5.286;2022-10-31T02:17:54;7.13;;;6.43;;
13816;SDS011;6979;52.116;5.286;2022-10-31T02:20:21;6.20;;;5.60;;
13816;SDS011;6979;52.116;5.286;2022-10-31T02:23:03;6.23;;;5.63;;
13816;SDS011;6979;52.116;5.286;2022-10-31T02:25:59;6.50;;;5.97;;
13816;SDS011;6979;52.116;5.286;2022-10-31T02:31:53;6.13;;;5.63;;
13816;SDS011;6979;52.116;5.286;2022-10-31T02:34:28;6.07;;;5.47;;
13816;SDS011;6979;52.116;5.286;2022-10-31T02:37:05;5.97;;;5.40;;
13816;SDS011;6979;52.116;5.286;2022-10-31T02:39:39;7.03;;;6.40;;
13816;SDS011;6979;52.116;5.286;2022-10-31T02:42:20;6.53;;;5.93;;
13816;SDS011;6979;52.116;5.286;2022-10-31T02:44:55;6.07;;;5.57;;
13816;SDS011;6979;52.116;5.286;2022-10-31T02:47:29;6.63;;;6.03;;
13816;SDS011;6979;52.116;5.286;2022-10-31T02:50:00;5.93;;;5.43;;
13816;SDS011;6979;52.116;5.286;2022-10-31T02:52:31;6.90;;;5.90;;
13816;SDS011;6979;52.116;5.286;2022-10-31T02:55:12;6.03;;;5.53;;
13816;SDS011;6979;52.116;5.286;2022-10-31T02:58:00;6.07;;;5.60;;
13816;SDS011;6979;52.116;5.286;2022-10-31T03:00:31;7.87;;;5.13;;
13816;SDS011;6979;52.116;5.286;2022-10-31T03:03:06;6.50;;;5.90;;
13816;SDS011;6979;52.116;5.286;2022-10-31T03:05:45;5.77;;;5.27;;
13816;SDS011;6979;52.116;5.286;2022-10-31T03:08:21;6.80;;;6.27;;
13816;SDS011;6979;52.116;5.286;2022-10-31T03:10:56;5.77;;;5.33;;
13816;SDS011;6979;52.116;5.286;2022-10-31T03:13:29;6.27;;;5.67;;
13816;SDS011;6979;52.116;5.286;2022-10-31T03:16:03;6.70;;;5.80;;
13816;SDS011;6979;52.116;5.286;2022-10-31T03:18:40;6.57;;;5.87;;
13816;SDS011;6979;52.116;5.286;2022-10-31T03:21:10;7.23;;;6.63;;
13816;SDS011;6979;52.116;5.286;2022-10-31T03:23:40;7.73;;;6.30;;
13816;SDS011;6979;52.116;5.286;2022-10-31T03:26:17;9.43;;;6.07;;
13816;SDS011;6979;52.116;5.286;2022-10-31T03:28:48;6.97;;;6.40;;
13816;SDS011;6979;52.116;5.286;2022-10-31T03:31:18;7.97;;;7.27;;
13816;SDS011;6979;52.116;5.286;2022-10-31T03:33:48;7.03;;;6.33;;
13816;SDS011;6979;52.116;5.286;2022-10-31T03:36:18;6.57;;;5.97;;
13816;SDS011;6979;52.116;5.286;2022-10-31T03:38:46;7.33;;;6.63;;
13816;SDS011;6979;52.116;5.286;2022-10-31T03:41:17;6.93;;;6.33;;
13816;SDS011;6979;52.116;5.286;2022-10-31T03:43:52;7.43;;;6.80;;
13816;SDS011;6979;52.116;5.286;2022-10-31T03:46:24;7.33;;;6.63;;
13816;SDS011;6979;52.116;5.286;2022-10-31T03:48:55;6.83;;;6.23;;
13816;SDS011;6979;52.116;5.286;2022-10-31T03:51:24;7.53;;;6.63;;
13816;SDS011;6979;52.116;5.286;2022-10-31T03:53:56;7.53;;;6.80;;
13816;SDS011;6979;52.116;5.286;2022-10-31T03:56:31;7.00;;;6.40;;
13816;SDS011;6979;52.116;5.286;2022-10-31T03:59:02;7.83;;;7.13;;
13816;SDS011;6979;52.116;5.286;2022-10-31T04:01:34;6.87;;;6.27;;
13816;SDS011;6979;52.116;5.286;2022-10-31T04:04:06;7.20;;;6.40;;
13816;SDS011;6979;52.116;5.286;2022-10-31T04:06:34;7.47;;;6.87;;
13816;SDS011;6979;52.116;5.286;2022-10-31T04:09:05;7.70;;;7.10;;
13816;SDS011;6979;52.116;5.286;2022-10-31T04:11:35;6.97;;;6.37;;
13816;SDS011;6979;52.116;5.286;2022-10-31T04:14:23;7.90;;;7.10;;
13816;SDS011;6979;52.116;5.286;2022-10-31T04:16:54;7.33;;;6.63;;
13816;SDS011;6979;52.116;5.286;2022-10-31T04:19:31;7.17;;;6.57;;
13816;SDS011;6979;52.116;5.286;2022-10-31T04:21:59;7.67;;;7.07;;
13816;SDS011;6979;52.116;5.286;2022-10-31T04:24:26;7.50;;;6.90;;
13816;SDS011;6979;52.116;5.286;2022-10-31T04:26:53;8.23;;;7.43;;
13816;SDS011;6979;52.116;5.286;2022-10-31T04:29:21;8.13;;;7.37;;
13816;SDS011;6979;52.116;5.286;2022-10-31T04:31:48;8.47;;;7.83;;
13816;SDS011;6979;52.116;5.286;2022-10-31T04:34:16;8.07;;;7.33;;
13816;SDS011;6979;52.116;5.286;2022-10-31T04:36:44;8.83;;;8.03;;
13816;SDS011;6979;52.116;5.286;2022-10-31T04:39:14;9.03;;;8.23;;
13816;SDS011;6979;52.116;5.286;2022-10-31T04:41:48;8.53;;;7.67;;
13816;SDS011;6979;52.116;5.286;2022-10-31T04:44:15;8.27;;;7.57;;
13816;SDS011;6979;52.116;5.286;2022-10-31T04:46:42;8.27;;;7.57;;
13816;SDS011;6979;52.116;5.286;2022-10-31T04:49:09;8.93;;;8.10;;
13816;SDS011;6979;52.116;5.286;2022-10-31T04:51:36;8.10;;;7.43;;
13816;SDS011;6979;52.116;5.286;2022-10-31T04:54:05;9.33;;;6.97;;
13816;SDS011;6979;52.116;5.286;2022-10-31T04:56:50;8.70;;;7.27;;
13816;SDS011;6979;52.116;5.286;2022-10-31T04:59:20;7.83;;;7.13;;
13816;SDS011;6979;52.116;5.286;2022-10-31T05:01:51;8.33;;;7.63;;
13816;SDS011;6979;52.116;5.286;2022-10-31T05:04:24;8.63;;;7.93;;
13816;SDS011;6979;52.116;5.286;2022-10-31T05:06:51;8.63;;;7.93;;
13816;SDS011;6979;52.116;5.286;2022-10-31T05:09:19;7.53;;;6.93;;
13816;SDS011;6979;52.116;5.286;2022-10-31T05:11:46;7.87;;;7.27;;
13816;SDS011;6979;52.116;5.286;2022-10-31T05:14:45;8.43;;;7.57;;
13816;SDS011;6979;52.116;5.286;2022-10-31T05:17:31;8.47;;;7.77;;
13816;SDS011;6979;52.116;5.286;2022-10-31T05:20:22;8.17;;;7.37;;
13816;SDS011;6979;52.116;5.286;2022-10-31T05:23:12;7.97;;;7.37;;
13816;SDS011;6979;52.116;5.286;2022-10-31T05:25:42;8.63;;;7.77;;
13816;SDS011;6979;52.116;5.286;2022-10-31T05:28:11;8.93;;;8.17;;
13816;SDS011;6979;52.116;5.286;2022-10-31T05:30:38;8.17;;;7.57;;
13816;SDS011;6979;52.116;5.286;2022-10-31T05:33:09;7.70;;;7.03;;
13816;SDS011;6979;52.116;5.286;2022-10-31T05:35:55;8.07;;;7.33;;
13816;SDS011;6979;52.116;5.286;2022-10-31T05:38:21;8.83;;;7.90;;
13816;SDS011;6979;52.116;5.286;2022-10-31T05:40:50;9.20;;;8.50;;
13816;SDS011;6979;52.116;5.286;2022-10-31T05:43:22;8.97;;;8.17;;
13816;SDS011;6979;52.116;5.286;2022-10-31T05:45:51;8.70;;;7.77;;
13816;SDS011;6979;52.116;5.286;2022-10-31T05:48:38;8.53;;;7.67;;
13816;SDS011;6979;52.116;5.286;2022-10-31T05:51:25;9.47;;;8.67;;
13816;SDS011;6979;52.116;5.286;2022-10-31T05:53:52;8.43;;;7.73;;
13816;SDS011;6979;52.116;5.286;2022-10-31T05:56:24;8.80;;;7.90;;
13816;SDS011;6979;52.116;5.286;2022-10-31T05:58:51;9.20;;;8.37;;
13816;SDS011;6979;52.116;5.286;2022-10-31T06:01:20;8.97;;;8.17;;
13816;SDS011;6979;52.116;5.286;2022-10-31T06:03:47;9.23;;;8.43;;
13816;SDS011;6979;52.116;5.286;2022-10-31T06:06:15;10.03;;;8.17;;
13816;SDS011;6979;52.116;5.286;2022-10-31T06:08:42;9.37;;;8.57;;
13816;SDS011;6979;52.116;5.286;2022-10-31T06:11:14;9.13;;;8.43;;
13816;SDS011;6979;52.116;5.286;2022-10-31T06:14:11;8.73;;;7.83;;
13816;SDS011;6979;52.116;5.286;2022-10-31T06:16:54;9.07;;;8.27;;
13816;SDS011;6979;52.116;5.286;2022-10-31T06:19:47;9.43;;;8.57;;
13816;SDS011;6979;52.116;5.286;2022-10-31T06:22:19;9.47;;;8.57;;
13816;SDS011;6979;52.116;5.286;2022-10-31T06:24:47;10.10;;;9.20;;
13816;SDS011;6979;52.116;5.286;2022-10-31T06:27:25;9.20;;;8.40;;
13816;SDS011;6979;52.116;5.286;2022-10-31T06:29:54;10.63;;;9.67;;
13816;SDS011;6979;52.116;5.286;2022-10-31T06:32:28;10.33;;;9.37;;
13816;SDS011;6979;52.116;5.286;2022-10-31T06:34:55;11.03;;;9.97;;
13816;SDS011;6979;52.116;5.286;2022-10-31T06:37:22;9.47;;;8.67;;
13816;SDS011;6979;52.116;5.286;2022-10-31T06:39:49;8.70;;;7.80;;
13816;SDS011;6979;52.116;5.286;2022-10-31T06:42:17;9.03;;;8.13;;
13816;SDS011;6979;52.116;5.286;2022-10-31T06:44:43;8.90;;;8.10;;
13816;SDS011;6979;52.116;5.286;2022-10-31T06:47:31;9.40;;;8.60;;
13816;SDS011;6979;52.116;5.286;2022-10-31T06:50:06;9.53;;;8.70;;
13816;SDS011;6979;52.116;5.286;2022-10-31T06:52:34;9.10;;;8.23;;
13816;SDS011;6979;52.116;5.286;2022-10-31T06:55:01;9.13;;;8.33;;
13816;SDS011;6979;52.116;5.286;2022-10-31T06:57:29;8.57;;;7.23;;
13816;SDS011;6979;52.116;5.286;2022-10-31T06:59:56;9.40;;;8.07;;
13816;SDS011;6979;52.116;5.286;2022-10-31T07:02:42;9.40;;;8.40;;
13816;SDS011;6979;52.116;5.286;2022-10-31T07:05:10;10.20;;;9.27;;
13816;SDS011;6979;52.116;5.286;2022-10-31T07:07:36;9.63;;;8.73;;
13816;SDS011;6979;52.116;5.286;2022-10-31T07:10:04;9.00;;;8.10;;
13816;SDS011;6979;52.116;5.286;2022-10-31T07:12:53;11.50;;;10.43;;
13816;SDS011;6979;52.116;5.286;2022-10-31T07:15:20;11.23;;;10.13;;
13816;SDS011;6979;52.116;5.286;2022-10-31T07:17:48;12.17;;;10.90;;
13816;SDS011;6979;52.116;5.286;2022-10-31T07:20:16;12.50;;;11.40;;
13816;SDS011;6979;52.116;5.286;2022-10-31T07:22:45;11.93;;;10.60;;
13816;SDS011;6979;52.116;5.286;2022-10-31T07:25:13;11.60;;;10.50;;
13816;SDS011;6979;52.116;5.286;2022-10-31T07:27:59;11.67;;;10.67;;
13816;SDS011;6979;52.116;5.286;2022-10-31T07:30:26;10.27;;;9.03;;
13816;SDS011;6979;52.116;5.286;2022-10-31T07:32:56;11.07;;;9.97;;
13816;SDS011;6979;52.116;5.286;2022-10-31T07:35:32;10.30;;;9.40;;
13816;SDS011;6979;52.116;5.286;2022-10-31T07:38:06;15.87;;;12.90;;
13816;SDS011;6979;52.116;5.286;2022-10-31T07:40:33;12.13;;;10.87;;
13816;SDS011;6979;52.116;5.286;2022-10-31T07:43:01;11.70;;;10.50;;
13816;SDS011;6979;52.116;5.286;2022-10-31T07:45:49;12.63;;;11.53;;
13816;SDS011;6979;52.116;5.286;2022-10-31T07:48:37;12.20;;;10.93;;
13816;SDS011;6979;52.116;5.286;2022-10-31T07:51:22;11.20;;;10.03;;
13816;SDS011;6979;52.116;5.286;2022-10-31T07:54:08;11.40;;;10.20;;
13816;SDS011;6979;52.116;5.286;2022-10-31T07:56:36;11.47;;;10.30;;
13816;SDS011;6979;52.116;5.286;2022-10-31T07:59:05;12.10;;;10.07;;
13816;SDS011;6979;52.116;5.286;2022-10-31T08:01:32;13.13;;;11.73;;
13816;SDS011;6979;52.116;5.286;2022-10-31T08:04:32;13.97;;;12.67;;
13816;SDS011;6979;52.116;5.286;2022-10-31T08:07:18;14.73;;;13.33;;
13816;SDS011;6979;52.116;5.286;2022-10-31T08:09:52;14.70;;;12.50;;
13816;SDS011;6979;52.116;5.286;2022-10-31T08:12:23;12.77;;;11.60;;
13816;SDS011;6979;52.116;5.286;2022-10-31T08:14:51;15.03;;;13.50;;
13816;SDS011;6979;52.116;5.286;2022-10-31T08:17:18;15.07;;;13.67;;
13816;SDS011;6979;52.116;5.286;2022-10-31T08:19:58;17.00;;;14.27;;
13816;SDS011;6979;52.116;5.286;2022-10-31T08:22:32;16.10;;;14.47;;
13816;SDS011;6979;52.116;5.286;2022-10-31T08:25:00;18.40;;;16.47;;
13816;SDS011;6979;52.116;5.286;2022-10-31T08:27:27;17.37;;;15.63;;
13816;SDS011;6979;52.116;5.286;2022-10-31T08:29:57;17.40;;;15.80;;
13816;SDS011;6979;52.116;5.286;2022-10-31T08:32:24;18.10;;;16.20;;
13816;SDS011;6979;52.116;5.286;2022-10-31T08:35:22;19.53;;;17.53;;
13816;SDS011;6979;52.116;5.286;2022-10-31T08:38:08;18.77;;;16.77;;
13816;SDS011;6979;52.116;5.286;2022-10-31T08:40:36;19.47;;;17.43;;
13816;SDS011;6979;52.116;5.286;2022-10-31T08:43:04;20.50;;;18.43;;
13816;SDS011;6979;52.116;5.286;2022-10-31T08:45:32;19.20;;;17.07;;
13816;SDS011;6979;52.116;5.286;2022-10-31T08:48:00;19.53;;;17.43;;
13816;SDS011;6979;52.116;5.286;2022-10-31T08:50:31;20.30;;;18.03;;
13816;SDS011;6979;52.116;5.286;2022-10-31T08:53:01;23.97;;;21.47;;
13816;SDS011;6979;52.116;5.286;2022-10-31T08:55:29;18.97;;;17.03;;
13816;SDS011;6979;52.116;5.286;2022-10-31T08:58:06;20.70;;;18.57;;
13816;SDS011;6979;52.116;5.286;2022-10-31T09:00:42;19.17;;;17.17;;
13816;SDS011;6979;52.116;5.286;2022-10-31T09:03:15;21.33;;;19.37;;
13816;SDS011;6979;52.116;5.286;2022-10-31T09:05:45;24.47;;;21.97;;
13816;SDS011;6979;52.116;5.286;2022-10-31T09:08:12;20.60;;;18.40;;
13816;SDS011;6979;52.116;5.286;2022-10-31T09:10:42;21.13;;;19.23;;
13816;SDS011;6979;52.116;5.286;2022-10-31T09:13:10;20.50;;;18.50;;
13816;SDS011;6979;52.116;5.286;2022-10-31T09:16:10;18.37;;;16.67;;
13816;SDS011;6979;52.116;5.286;2022-10-31T09:18:37;18.80;;;17.10;;
13816;SDS011;6979;52.116;5.286;2022-10-31T09:21:05;18.73;;;16.90;;
13816;SDS011;6979;52.116;5.286;2022-10-31T09:23:32;17.63;;;15.87;;
13816;SDS011;6979;52.116;5.286;2022-10-31T09:26:00;19.30;;;17.27;;
13816;SDS011;6979;52.116;5.286;2022-10-31T09:28:35;15.33;;;13.90;;
13816;SDS011;6979;52.116;5.286;2022-10-31T09:31:10;15.20;;;13.67;;
13816;SDS011;6979;52.116;5.286;2022-10-31T09:33:52;16.33;;;14.73;;
13816;SDS011;6979;52.116;5.286;2022-10-31T09:36:46;14.13;;;12.67;;
13816;SDS011;6979;52.116;5.286;2022-10-31T09:39:18;13.07;;;11.97;;
13816;SDS011;6979;52.116;5.286;2022-10-31T09:42:05;12.83;;;11.60;;
13816;SDS011;6979;52.116;5.286;2022-10-31T09:44:50;12.03;;;10.73;;
13816;SDS011;6979;52.116;5.286;2022-10-31T09:47:29;12.07;;;10.93;;
13816;SDS011;6979;52.116;5.286;2022-10-31T09:50:41;10.57;;;9.60;;
13816;SDS011;6979;52.116;5.286;2022-10-31T09:53:34;10.73;;;9.83;;
13816;SDS011;6979;52.116;5.286;2022-10-31T09:56:07;10.47;;;9.57;;
13816;SDS011;6979;52.116;5.286;2022-10-31T09:58:39;10.33;;;9.43;;
13816;SDS011;6979;52.116;5.286;2022-10-31T10:01:11;12.23;;;11.03;;
13816;SDS011;6979;52.116;5.286;2022-10-31T10:03:50;11.57;;;10.43;;
13816;SDS011;6979;52.116;5.286;2022-10-31T10:06:44;10.20;;;9.40;;
13816;SDS011;6979;52.116;5.286;2022-10-31T10:09:33;10.63;;;9.67;;
13816;SDS011;6979;52.116;5.286;2022-10-31T10:12:30;9.20;;;8.40;;
13816;SDS011;6979;52.116;5.286;2022-10-31T10:15:20;9.53;;;8.67;;
13816;SDS011;6979;52.116;5.286;2022-10-31T10:17:59;9.87;;;8.97;;
13816;SDS011;6979;52.116;5.286;2022-10-31T10:20:37;9.37;;;8.57;;
13816;SDS011;6979;52.116;5.286;2022-10-31T10:23:29;9.10;;;8.20;;
13816;SDS011;6979;52.116;5.286;2022-10-31T10:26:10;10.20;;;9.30;;
13816;SDS011;6979;52.116;5.286;2022-10-31T10:28:43;9.57;;;8.77;;
13816;SDS011;6979;52.116;5.286;2022-10-31T10:31:14;8.90;;;8.00;;
13816;SDS011;6979;52.116;5.286;2022-10-31T10:33:43;9.27;;;8.47;;
13816;SDS011;6979;52.116;5.286;2022-10-31T10:36:21;9.23;;;8.17;;
13816;SDS011;6979;52.116;5.286;2022-10-31T10:38:55;9.67;;;8.87;;
13816;SDS011;6979;52.116;5.286;2022-10-31T10:41:28;9.90;;;8.93;;
13816;SDS011;6979;52.116;5.286;2022-10-31T10:43:58;9.43;;;8.73;;
13816;SDS011;6979;52.116;5.286;2022-10-31T10:46:26;10.43;;;9.43;;
13816;SDS011;6979;52.116;5.286;2022-10-31T10:49:22;8.93;;;8.07;;
13816;SDS011;6979;52.116;5.286;2022-10-31T10:51:57;9.47;;;8.63;;
13816;SDS011;6979;52.116;5.286;2022-10-31T10:57:29;9.30;;;8.43;;
13816;SDS011;6979;52.116;5.286;2022-10-31T11:00:15;10.93;;;10.03;;
13816;SDS011;6979;52.116;5.286;2022-10-31T11:02:44;10.17;;;9.13;;
13816;SDS011;6979;52.116;5.286;2022-10-31T11:05:13;10.70;;;9.77;;
13816;SDS011;6979;52.116;5.286;2022-10-31T11:07:48;11.00;;;10.00;;
13816;SDS011;6979;52.116;5.286;2022-10-31T11:10:15;10.50;;;9.50;;
13816;SDS011;6979;52.116;5.286;2022-10-31T11:12:45;10.67;;;9.67;;
13816;SDS011;6979;52.116;5.286;2022-10-31T11:15:24;9.53;;;8.80;;
13816;SDS011;6979;52.116;5.286;2022-10-31T11:17:53;9.63;;;8.77;;
13816;SDS011;6979;52.116;5.286;2022-10-31T11:20:25;10.83;;;9.73;;
13816;SDS011;6979;52.116;5.286;2022-10-31T11:23:00;11.57;;;10.53;;
13816;SDS011;6979;52.116;5.286;2022-10-31T11:25:30;11.97;;;10.77;;
13816;SDS011;6979;52.116;5.286;2022-10-31T11:28:00;11.07;;;10.07;;
13816;SDS011;6979;52.116;5.286;2022-10-31T11:30:29;10.20;;;9.30;;
13816;SDS011;6979;52.116;5.286;2022-10-31T11:32:57;12.23;;;11.10;;
13816;SDS011;6979;52.116;5.286;2022-10-31T11:35:24;10.60;;;9.57;;
13816;SDS011;6979;52.116;5.286;2022-10-31T11:37:52;13.03;;;10.33;;
13816;SDS011;6979;52.116;5.286;2022-10-31T11:40:21;10.70;;;9.80;;
13816;SDS011;6979;52.116;5.286;2022-10-31T11:42:50;11.60;;;10.53;;
13816;SDS011;6979;52.116;5.286;2022-10-31T11:45:33;10.77;;;9.80;;
13816;SDS011;6979;52.116;5.286;2022-10-31T11:48:02;11.90;;;10.70;;
13816;SDS011;6979;52.116;5.286;2022-10-31T11:50:40;12.03;;;10.83;;
13816;SDS011;6979;52.116;5.286;2022-10-31T11:53:12;12.47;;;11.27;;
13816;SDS011;6979;52.116;5.286;2022-10-31T11:55:41;12.63;;;10.43;;
13816;SDS011;6979;52.116;5.286;2022-10-31T11:58:19;12.60;;;11.40;;
13816;SDS011;6979;52.116;5.286;2022-10-31T12:00:49;13.60;;;12.13;;
13816;SDS011;6979;52.116;5.286;2022-10-31T12:03:24;13.47;;;12.27;;
13816;SDS011;6979;52.116;5.286;2022-10-31T12:06:02;13.00;;;11.63;;
13816;SDS011;6979;52.116;5.286;2022-10-31T12:08:32;13.37;;;11.97;;
13816;SDS011;6979;52.116;5.286;2022-10-31T12:11:03;13.13;;;11.80;;
13816;SDS011;6979;52.116;5.286;2022-10-31T12:13:38;12.07;;;10.87;;
13816;SDS011;6979;52.116;5.286;2022-10-31T12:16:11;13.57;;;12.17;;
13816;SDS011;6979;52.116;5.286;2022-10-31T12:18:53;13.60;;;12.23;;
13816;SDS011;6979;52.116;5.286;2022-10-31T12:21:39;14.43;;;13.03;;
13816;SDS011;6979;52.116;5.286;2022-10-31T12:24:22;15.37;;;13.77;;
13816;SDS011;6979;52.116;5.286;2022-10-31T12:27:02;14.90;;;13.40;;
13816;SDS011;6979;52.116;5.286;2022-10-31T12:29:42;14.77;;;12.53;;
13816;SDS011;6979;52.116;5.286;2022-10-31T12:32:29;14.40;;;13.07;;
13816;SDS011;6979;52.116;5.286;2022-10-31T12:35:10;15.97;;;13.10;;
13816;SDS011;6979;52.116;5.286;2022-10-31T12:37:50;15.37;;;13.87;;
13816;SDS011;6979;52.116;5.286;2022-10-31T12:40:39;15.20;;;13.63;;
13816;SDS011;6979;52.116;5.286;2022-10-31T12:43:19;17.03;;;15.13;;
13816;SDS011;6979;52.116;5.286;2022-10-31T12:45:55;16.10;;;14.50;;
13816;SDS011;6979;52.116;5.286;2022-10-31T12:48:33;16.30;;;14.33;;
13816;SDS011;6979;52.116;5.286;2022-10-31T12:51:14;16.83;;;15.23;;
13816;SDS011;6979;52.116;5.286;2022-10-31T12:53:58;17.07;;;15.37;;
13816;SDS011;6979;52.116;5.286;2022-10-31T12:56:39;20.67;;;17.03;;
13816;SDS011;6979;52.116;5.286;2022-10-31T12:59:13;17.00;;;15.30;;
13816;SDS011;6979;52.116;5.286;2022-10-31T13:01:47;17.47;;;15.63;;
13816;SDS011;6979;52.116;5.286;2022-10-31T13:04:24;17.00;;;14.70;;
13816;SDS011;6979;52.116;5.286;2022-10-31T13:07:03;19.10;;;15.43;;
13816;SDS011;6979;52.116;5.286;2022-10-31T13:09:35;17.40;;;15.70;;
13816;SDS011;6979;52.116;5.286;2022-10-31T13:12:07;17.97;;;16.00;;
13816;SDS011;6979;52.116;5.286;2022-10-31T13:14:38;20.47;;;18.30;;
13816;SDS011;6979;52.116;5.286;2022-10-31T13:17:08;19.20;;;17.23;;
13816;SDS011;6979;52.116;5.286;2022-10-31T13:19:44;17.93;;;16.03;;
13816;SDS011;6979;52.116;5.286;2022-10-31T13:22:15;19.03;;;16.60;;
13816;SDS011;6979;52.116;5.286;2022-10-31T13:24:45;17.43;;;15.73;;
13816;SDS011;6979;52.116;5.286;2022-10-31T13:27:20;18.30;;;16.07;;
13816;SDS011;6979;52.116;5.286;2022-10-31T13:29:52;16.77;;;15.17;;
13816;SDS011;6979;52.116;5.286;2022-10-31T13:32:25;18.73;;;16.80;;
13816;SDS011;6979;52.116;5.286;2022-10-31T13:34:56;18.60;;;16.63;;
13816;SDS011;6979;52.116;5.286;2022-10-31T13:37:27;17.57;;;15.77;;
13816;SDS011;6979;52.116;5.286;2022-10-31T13:40:03;19.20;;;17.30;;
13816;SDS011;6979;52.116;5.286;2022-10-31T13:42:41;21.60;;;17.80;;
13816;SDS011;6979;52.116;5.286;2022-10-31T13:45:20;19.03;;;16.80;;
13816;SDS011;6979;52.116;5.286;2022-10-31T13:47:55;18.23;;;15.77;;
13816;SDS011;6979;52.116;5.286;2022-10-31T13:50:27;18.47;;;16.67;;
13816;SDS011;6979;52.116;5.286;2022-10-31T13:55:47;19.03;;;17.03;;
13816;SDS011;6979;52.116;5.286;2022-10-31T13:58:25;19.20;;;17.27;;
13816;SDS011;6979;52.116;5.286;2022-10-31T14:01:02;17.03;;;15.33;;
13816;SDS011;6979;52.116;5.286;2022-10-31T14:03:42;16.63;;;15.03;;
13816;SDS011;6979;52.116;5.286;2022-10-31T14:06:14;16.27;;;14.30;;
13816;SDS011;6979;52.116;5.286;2022-10-31T14:08:47;17.80;;;14.47;;
13816;SDS011;6979;52.116;5.286;2022-10-31T14:11:18;18.37;;;15.03;;
13816;SDS011;6979;52.116;5.286;2022-10-31T14:13:49;17.37;;;14.83;;
13816;SDS011;6979;52.116;5.286;2022-10-31T14:16:17;16.77;;;14.97;;
13816;SDS011;6979;52.116;5.286;2022-10-31T14:18:47;17.57;;;15.87;;
13816;SDS011;6979;52.116;5.286;2022-10-31T14:21:26;17.70;;;15.80;;
13816;SDS011;6979;52.116;5.286;2022-10-31T14:23:55;17.87;;;16.07;;
13816;SDS011;6979;52.116;5.286;2022-10-31T14:26:35;19.77;;;15.20;;
13816;SDS011;6979;52.116;5.286;2022-10-31T14:31:52;16.57;;;14.80;;
13816;SDS011;6979;52.116;5.286;2022-10-31T14:34:22;16.43;;;14.73;;
13816;SDS011;6979;52.116;5.286;2022-10-31T14:36:59;17.67;;;15.03;;
13816;SDS011;6979;52.116;5.286;2022-10-31T14:39:52;17.20;;;15.43;;
13816;SDS011;6979;52.116;5.286;2022-10-31T14:42:40;17.60;;;15.83;;
13816;SDS011;6979;52.116;5.286;2022-10-31T14:45:17;17.20;;;14.33;;
13816;SDS011;6979;52.116;5.286;2022-10-31T14:47:58;19.53;;;14.37;;
13816;SDS011;6979;52.116;5.286;2022-10-31T14:50:40;16.47;;;14.87;;
13816;SDS011;6979;52.116;5.286;2022-10-31T14:53:18;14.83;;;13.53;;
13816;SDS011;6979;52.116;5.286;2022-10-31T14:55:58;16.13;;;14.30;;
13816;SDS011;6979;52.116;5.286;2022-10-31T14:58:27;15.73;;;14.13;;
13816;SDS011;6979;52.116;5.286;2022-10-31T15:00:59;15.50;;;13.87;;
13816;SDS011;6979;52.116;5.286;2022-10-31T15:03:28;15.50;;;13.87;;
13816;SDS011;6979;52.116;5.286;2022-10-31T15:05:58;16.53;;;14.50;;
13816;SDS011;6979;52.116;5.286;2022-10-31T15:08:31;17.13;;;14.87;;
13816;SDS011;6979;52.116;5.286;2022-10-31T15:11:02;19.37;;;14.63;;
13816;SDS011;6979;52.116;5.286;2022-10-31T15:13:35;17.10;;;15.40;;
13816;SDS011;6979;52.116;5.286;2022-10-31T15:16:09;17.87;;;15.97;;
13816;SDS011;6979;52.116;5.286;2022-10-31T15:18:44;17.73;;;14.20;;
13816;SDS011;6979;52.116;5.286;2022-10-31T15:21:15;15.77;;;14.13;;
13816;SDS011;6979;52.116;5.286;2022-10-31T15:23:46;17.03;;;14.50;;
13816;SDS011;6979;52.116;5.286;2022-10-31T15:26:17;16.57;;;14.43;;
13816;SDS011;6979;52.116;5.286;2022-10-31T15:28:45;14.73;;;13.27;;
13816;SDS011;6979;52.116;5.286;2022-10-31T15:31:23;15.57;;;13.73;;
13816;SDS011;6979;52.116;5.286;2022-10-31T15:33:49;16.03;;;14.40;;
13816;SDS011;6979;52.116;5.286;2022-10-31T15:36:19;17.00;;;15.03;;
13816;SDS011;6979;52.116;5.286;2022-10-31T15:38:48;15.47;;;13.60;;
13816;SDS011;6979;52.116;5.286;2022-10-31T15:41:21;15.40;;;13.80;;